Portada
METAR-TAF:

METAR-TAF

Aeroports :

El Salvador, El Salvador

latitud: 13-26N, longitud: 089-03W, altitud: 25 m

Observació

L'informe es va fer fa 43 minuts, a les 01:23 UTC
Vent 7 kt del Sud-Oest
Temperatura 25°C
Humitat 94%
Pressió 1009 hPa
Visibilitat: 8000 m
Núvols disperses a una alçada de 500 ft
Cel cobert a una alçada de 1500 ft

METAR: MSLP 180123Z 22007KT 8000 SCT005 OVC015 25/24 Q1009 NOSIG

Hora: 20:06 (02:06 UTC)

Pronòstic

L'informe es va fer fa 4 hores i 41 minuts, a les 21:25 UTC
Pronòstic vàlid del 18 a les 00 UTC al 18 a les 24 UTC
Vent 10 kt del Oest/Sud-Oest amb ràfegues de 20 kt
Visibilitat: 3000 m
Núvols disperses a una alçada de 700 ft
Cel cobert a una alçada de 1300 ft
pluja
A partir de les 18 a les 1200 UTC
Vent 10 kt del Oest/Sud-Oest
Visibilitat: 5000 m
Núvols disperses a una alçada de 700 ft
Cel ennuvolat a una alçada de 1300 ft
pluja,

TAF: MSLP 172125Z 1800/1824 24010G20KT 3000 +RA SCT007 OVC013 TX28/1817Z TN26/1812Z FM181200 24010KT 5000 RA SCT007 BKN013

Observacions i pronòstics meteorològics de més de 4000 aeroports (METAR i TAF).

Les estacions disponibles són els punts grocs i vermells al mapa.

Posi el ratolí al punt desitjat per veure el nom de l'estació.

Feu clic per veure les observacions i els pronòstics meteorològics.

Per canviar el mapa: feu clic els botons verds amb una creu de color negre per apropar; al botó verd amb un guió per allunyar la imatge; o en les fletxes verdes per a mapes adjacents.


METAR-TAF: